Open Text Return on Tangible Equity 2010-2024 | OTEX

Current and historical return on tangible equity values for Open Text (OTEX) over the last 10 years. Return on tangible equity can be defined as the amount of net income returned as a percentage of shareholders equity, after subtracting intangible assets, goodwill and preferred equity.
Open Text Return On Tangible Equity Historical Data
Date TTM Net Income Tangible Equity Return on Tangible Equity
2024-03-31 $0.17B $-6.02B -2.27%
2023-12-31 $0.13B $-6.35B -1.58%
2023-09-30 $0.35B $-8.49B -4.96%
2023-06-30 $0.15B $-8.72B -2.74%
2023-03-31 $0.30B $-8.85B -7.77%
2022-12-31 $0.32B $-2.01B -14.07%
2022-09-30 $0.15B $-2.35B -6.26%
2022-06-30 $0.40B $-2.29B -18.34%
2022-03-31 $0.48B $-2.39B -23.36%
2021-12-31 $0.49B $-2.42B -25.54%
2021-09-30 $0.34B $-1.56B -18.37%
2021-06-30 $0.31B $-1.78B -15.61%
2021-03-31 $0.16B $-1.95B -7.34%
2020-12-31 $0.09B $-2.10B -4.04%
2020-09-30 $0.26B $-2.12B -11.30%
2020-06-30 $0.23B $-2.28B -11.55%
2020-03-31 $0.28B $-2.41B -16.35%
2019-12-31 $0.33B $-2.47B -23.37%
2019-09-30 $0.32B $-0.92B -29.74%
2019-06-30 $0.29B $-1.03B -25.42%
2019-03-31 $0.28B $-1.17B -23.85%
2018-12-31 $0.26B $-1.23B -22.06%
2018-09-30 $0.24B $-1.06B -19.67%
2018-06-30 $0.24B $-1.16B -17.87%
2018-03-31 $0.23B $-1.29B -16.12%
2017-12-31 $0.19B $-1.42B -13.08%
2017-09-30 $0.15B $-1.57B -14.05%
2017-06-30 $1.03B $-1.36B -126.43%
2017-03-31 $1.07B $-1.46B -147.90%
2016-12-31 $1.11B $0.12B -198.84%
2016-09-30 $1.16B $-0.55B -141.02%
2016-06-30 $0.28B $-0.99B -30.59%
2016-03-31 $0.27B $-0.82B -28.62%
2015-12-31 $0.23B $-0.92B -22.38%
2015-09-30 $0.21B $-0.98B -21.53%
2015-06-30 $0.24B $-1.01B -24.33%
2015-03-31 $0.25B $-1.11B -26.22%
2014-12-31 $0.27B $-0.82B -26.78%
2014-09-30 $0.25B $-0.93B -29.38%
2014-06-30 $0.22B $-1.02B -31.57%
2014-03-31 $0.17B $-1.31B -34.17%
2013-12-31 $0.15B $-0.19B -57.90%
2013-09-30 $0.16B $-0.26B -51.49%
2013-06-30 $0.15B $-0.27B -40.60%
2013-03-31 $0.11B $-0.34B -33.58%
2012-12-31 $0.12B $-0.37B -40.10%
2012-09-30 $0.11B $-0.47B -37.88%
2012-06-30 $0.13B $-0.17B -47.13%
2012-03-31 $0.15B $-0.21B -56.92%
2011-12-31 $0.15B $-0.30B -57.82%
2011-09-30 $0.14B $-0.38B -69.02%
2011-06-30 $0.12B $-0.14B -108.30%
2011-03-31 $0.15B $-0.20B -135.48%
2010-12-31 $0.12B $-0.07B -122.77%
2010-09-30 $0.11B $-0.05B -78.98%
2010-06-30 $0.09B $-0.11B -45.89%
2010-03-31 $0.06B $-0.17B -25.64%
2009-12-31 $0.06B $-0.22B -25.94%
Sector Industry Market Cap Revenue
Computer and Technology Computer Software $8.282B $4.485B
Open Text Corporation is engaged in development of innovative intranet, extranet and e-Business applications. Since creating one of the first search engines to index the World Wide Web, the company has remained at the forefront of Internet-based technologies. Open Text solutions allow individuals, teams, organizations, and global trading communities to collaborate on projects, share ideas and accelerate innovation to the fastest possible speed. Open Text Corporation is headquartered in Waterloo, Canada.
Stock Name Country Market Cap PE Ratio
Microsoft (MSFT) United States $3173.595B 36.97
Oracle (ORCL) United States $341.061B 27.76
Salesforce (CRM) United States $269.656B 45.08
Adobe (ADBE) United States $216.523B 36.20
Intuit (INTU) United States $185.433B 57.69
Synopsys (SNPS) United States $89.411B 61.91
Cadence Design Systems (CDNS) United States $80.195B 76.35
Dassault Systemes SA (DASTY) France $56.522B 36.72
Autodesk (ADSK) United States $46.362B 45.30
ANSYS (ANSS) United States $28.650B 53.02
MicroStrategy (MSTR) United States $27.388B 0.00
PTC (PTC) United States $21.857B 57.97
SS&C Technologies Holdings (SSNC) United States $15.324B 14.51
Manhattan Associates (MANH) United States $13.875B 73.64
Descartes Systems Group (DSGX) Canada $8.441B 73.89
Trend Micro (TMICY) Japan $6.479B 46.93
Pegasystems (PEGA) United States $5.156B 45.59
CommVault Systems (CVLT) United States $4.801B 78.46
Blackbaud (BLKB) United States $4.089B 35.20
ACI Worldwide (ACIW) United States $3.740B 17.91
Progress Software (PRGS) United States $2.186B 13.90
Verint Systems (VRNT) United States $1.925B 17.94
Sapiens (SPNS) Israel $1.877B 25.59
BlackBerry (BB) Canada $1.676B 0.00
PROS Holdings (PRO) United States $1.466B 0.00
Simulations Plus (SLP) United States $0.993B 73.04
Rand Worldwide (RWWI) United States $0.647B 0.00
Magic Software Enterprises (MGIC) Israel $0.513B 10.88
American Software (AMSWA) United States $0.359B 30.00
Canaan (CAN) China $0.238B 0.00
OptimizeRx (OPRX) United States $0.225B 0.00
Rigetti Computing (RGTI) United States $0.182B 0.00
Icad Inc (ICAD) United States $0.043B 0.00
Neonode (NEON) Sweden $0.037B 0.00
NetSol Technologies (NTWK) United States $0.030B 0.00
Smith Micro Software (SMSI) United States $0.024B 0.00
Hanryu Holdings (HRYU) South Korea $0.022B 0.00
Wetouch Technology (WETH) $0.021B 0.00
GSE Systems (GVP) United States $0.011B 0.00
SAP SE (SAP) Germany $0.000B 49.88